Time;durP1;ratioP1;P1;durP2;ratioP2;P2;SDS_P1;SDS_P2;PMS_P1;PMS_P2;Temp;Humidity;BMP_temperature;BMP_pressure;BME280_temperature;BME280_humidity;BME280_pressure;Samples;Min_cycle;Max_cycle;Signal;HPM_P1;HPM_P2
2022/08/26 00:01:50;;;;;;;23.52;14.65;;;28.00;77.80;;;;;;5032219;28;20037;-73
2022/08/26 00:04:15;;;;;;;28.15;13.88;;;27.90;78.10;;;;;;5035290;28;20041;-73
2022/08/26 00:06:41;;;;;;;32.05;14.13;;;27.90;78.40;;;;;;5035523;28;20389;-72
2022/08/26 00:09:07;;;;;;;24.17;14.73;;;27.80;78.50;;;;;;5036354;28;20046;-73
2022/08/26 00:11:32;;;;;;;29.65;13.23;;;27.80;78.70;;;;;;5036539;28;20388;-72
2022/08/26 00:13:58;;;;;;;23.77;13.98;;;27.80;78.90;;;;;;5036647;28;20025;-72
2022/08/26 00:16:26;;;;;;;22.17;13.48;;;27.80;79.20;;;;;;5042826;28;20420;-72
2022/08/26 00:18:52;;;;;;;26.55;13.77;;;27.80;79.30;;;;;;5031021;28;20030;-73
2022/08/26 00:21:18;;;;;;;19.73;13.32;;;27.70;79.30;;;;;;5031637;28;20107;-73
2022/08/26 00:23:44;;;;;;;25.63;12.60;;;27.60;79.30;;;;;;5033894;28;20052;-72
2022/08/26 00:26:10;;;;;;;21.65;12.07;;;27.60;79.50;;;;;;5042668;28;20034;-72
2022/08/26 00:28:36;;;;;;;21.13;12.38;;;27.60;79.70;;;;;;5031009;28;20084;-73
2022/08/26 00:31:01;;;;;;;20.52;11.80;;;27.60;79.60;;;;;;5032078;28;20045;-73
2022/08/26 00:33:27;;;;;;;23.65;12.23;;;27.50;79.60;;;;;;5031083;28;20029;-73
2022/08/26 00:35:53;;;;;;;20.60;12.35;;;27.40;79.80;;;;;;5031677;28;20029;-72
2022/08/26 00:38:20;;;;;;;18.23;11.85;;;27.40;80.10;;;;;;5024862;28;20493;-73
2022/08/26 00:40:50;;;;;;;26.40;12.68;;;27.40;80.40;;;;;;5032952;28;20025;-72
2022/08/26 00:43:16;;;;;;;18.65;11.52;;;27.30;80.80;;;;;;5032241;28;20040;-72
2022/08/26 00:45:53;;;;;;;20.92;12.18;;;27.20;80.90;;;;;;5031331;28;20049;-73
2022/08/26 00:48:22;;;;;;;21.77;11.90;;;27.20;81.40;;;;;;5045556;28;20033;-72
2022/08/26 00:51:02;;;;;;;27.55;11.63;;;27.20;81.60;;;;;;5043915;28;20120;-72
2022/08/26 00:53:32;;;;;;;30.42;12.35;;;27.20;82.10;;;;;;5044864;28;20029;-72
2022/08/26 00:56:08;;;;;;;23.92;10.95;;;27.10;82.40;;;;;;5036457;28;20034;-73
2022/08/26 00:58:36;;;;;;;19.02;11.02;;;27.10;82.60;;;;;;5049602;28;20122;-73
2022/08/26 01:01:02;;;;;;;23.77;11.20;;;27.00;83.00;;;;;;5037742;28;20025;-73
2022/08/26 01:03:30;;;;;;;20.45;9.63;;;27.00;83.30;;;;;;5035861;28;20423;-73
2022/08/26 01:05:58;;;;;;;23.10;9.63;;;27.00;83.50;;;;;;5035830;28;20036;-73
2022/08/26 01:08:25;;;;;;;20.52;9.45;;;27.00;83.90;;;;;;5035179;28;20029;-72
2022/08/26 01:10:52;;;;;;;23.30;9.35;;;26.90;83.90;;;;;;5034936;28;20042;-73
2022/08/26 01:13:18;;;;;;;17.65;9.30;;;26.90;83.80;;;;;;5036262;28;20041;-73
2022/08/26 01:15:49;;;;;;;23.40;10.32;;;26.90;84.10;;;;;;5043185;28;20022;-73
2022/08/26 01:18:15;;;;;;;25.20;10.15;;;26.90;84.40;;;;;;5041420;28;20037;-73
2022/08/26 01:20:54;;;;;;;25.27;10.45;;;26.90;84.70;;;;;;5043912;28;20029;-73
2022/08/26 01:23:20;;;;;;;21.55;10.68;;;26.90;84.50;;;;;;5035587;28;20029;-73
2022/08/26 01:25:51;;;;;;;23.40;10.02;;;26.90;84.50;;;;;;5043726;28;20065;-73
2022/08/26 01:28:24;;;;;;;20.75;11.10;;;26.90;84.50;;;;;;5040290;28;20044;-73
2022/08/26 01:30:52;;;;;;;25.90;11.63;;;26.90;84.40;;;;;;5043819;28;20046;-73
2022/08/26 01:33:23;;;;;;;24.48;11.88;;;26.80;83.90;;;;;;5046166;28;20033;-73
2022/08/26 01:35:50;;;;;;;38.63;12.50;;;26.80;84.10;;;;;;5045932;28;20079;-73
2022/08/26 01:38:17;;;;;;;33.72;11.65;;;26.90;84.10;;;;;;5046028;28;20076;-73
2022/08/26 01:40:44;;;;;;;31.23;11.27;;;26.80;83.90;;;;;;5038495;28;20086;-73
2022/08/26 01:43:20;;;;;;;27.73;12.20;;;26.80;84.00;;;;;;5038547;28;20042;-73
2022/08/26 01:45:48;;;;;;;26.30;12.40;;;26.80;84.20;;;;;;5034805;28;20061;-73
2022/08/26 01:48:19;;;;;;;30.35;12.55;;;26.80;84.00;;;;;;5036041;28;20071;-73
2022/08/26 01:50:45;;;;;;;29.67;11.93;;;26.80;84.60;;;;;;5026612;28;20045;-72
2022/08/26 01:53:15;;;;;;;26.33;11.63;;;26.70;84.50;;;;;;5033186;28;20108;-73
2022/08/26 01:55:44;;;;;;;24.40;11.18;;;26.70;84.70;;;;;;5034644;28;20040;-73
2022/08/26 01:58:21;;;;;;;23.13;12.07;;;26.70;84.70;;;;;;5033263;28;20045;-73
2022/08/26 02:00:47;;;;;;;26.17;12.77;;;26.70;85.00;;;;;;5034747;28;20464;-73
2022/08/26 02:03:15;;;;;;;25.42;11.80;;;26.60;85.70;;;;;;5034164;28;20041;-73
2022/08/26 02:05:46;;;;;;;27.38;13.30;;;26.60;86.00;;;;;;5025794;28;20053;-73
2022/08/26 02:08:13;;;;;;;29.85;12.70;;;26.60;85.90;;;;;;5034795;28;20037;-73
2022/08/26 02:10:40;;;;;;;28.90;13.18;;;26.60;86.10;;;;;;5034260;28;20093;-73
2022/08/26 02:13:08;;;;;;;29.88;13.27;;;26.50;86.00;;;;;;5045985;28;20473;-73
2022/08/26 02:15:35;;;;;;;35.58;14.00;;;26.50;86.20;;;;;;5043836;28;20044;-73
2022/08/26 02:18:03;;;;;;;26.15;12.40;;;26.50;86.40;;;;;;5052820;28;20040;-73
2022/08/26 02:20:29;;;;;;;30.20;12.65;;;26.50;86.80;;;;;;5052999;28;20115;-73
2022/08/26 02:22:55;;;;;;;27.70;13.10;;;26.50;87.60;;;;;;5048770;28;20030;-73
2022/08/26 02:25:46;;;;;;;29.70;12.95;;;26.40;87.10;;;;;;5033985;28;20056;-73
2022/08/26 02:28:13;;;;;;;32.88;14.00;;;26.40;87.00;;;;;;5046390;28;20041;-73
2022/08/26 02:30:39;;;;;;;24.98;12.93;;;26.40;86.90;;;;;;5033174;28;20095;-73
2022/08/26 02:33:05;;;;;;;30.02;13.85;;;26.40;87.10;;;;;;5033824;28;20446;-73
2022/08/26 02:35:33;;;;;;;31.60;13.35;;;26.40;86.80;;;;;;5032750;28;20104;-73
2022/08/26 02:37:59;;;;;;;28.95;14.35;;;26.40;86.80;;;;;;5033959;28;20059;-73
2022/08/26 02:40:32;;;;;;;37.75;14.57;;;26.40;87.20;;;;;;5033827;28;20481;-73
2022/08/26 02:42:57;;;;;;;;;;;26.30;87.20;;;;;;5033608;28;20029;-73
2022/08/26 02:45:25;;;;;;;37.53;16.30;;;26.40;86.10;;;;;;5034296;28;19909;-74
2022/08/26 02:47:51;;;;;;;33.25;17.30;;;26.30;86.80;;;;;;5031294;28;20038;-73
2022/08/26 02:50:17;;;;;;;36.35;16.27;;;26.30;87.30;;;;;;5024844;28;20052;-73
2022/08/26 02:52:42;;;;;;;42.05;16.90;;;26.30;87.50;;;;;;5034724;28;20033;-73
2022/08/26 02:55:08;;;;;;;28.88;16.45;;;26.30;87.80;;;;;;5033466;28;20033;-73
2022/08/26 02:57:34;;;;;;;33.22;16.10;;;26.30;88.00;;;;;;5033066;28;20116;-73
2022/08/26 03:00:00;;;;;;;36.17;16.75;;;26.20;88.90;;;;;;5033391;28;20029;-73
2022/08/26 03:02:27;;;;;;;28.50;14.73;;;26.20;87.90;;;;;;5032725;28;20480;-73
2022/08/26 03:04:53;;;;;;;28.67;14.40;;;26.20;88.20;;;;;;5034517;28;20034;-73
2022/08/26 03:07:19;;;;;;;27.83;14.32;;;26.20;88.40;;;;;;5033970;28;20079;-73
2022/08/26 03:09:45;;;;;;;32.22;16.85;;;26.20;87.70;;;;;;5032221;28;20046;-73
2022/08/26 03:12:11;;;;;;;34.92;17.30;;;26.20;87.70;;;;;;5034394;28;20035;-73
2022/08/26 03:14:37;;;;;;;37.50;16.90;;;26.20;87.30;;;;;;5032833;28;20029;-73
2022/08/26 03:17:03;;;;;;;35.38;15.10;;;26.10;87.20;;;;;;5033015;28;20396;-73
2022/08/26 03:19:30;;;;;;;27.08;14.48;;;26.10;87.10;;;;;;5021213;28;20389;-73
2022/08/26 03:21:56;;;;;;;33.20;15.07;;;26.10;86.90;;;;;;5033589;28;20033;-73
2022/08/26 03:24:22;;;;;;;30.65;14.63;;;26.00;87.30;;;;;;5032903;28;20033;-73
2022/08/26 03:26:48;;;;;;;33.72;12.70;;;26.00;87.40;;;;;;5033966;28;20032;-73
2022/08/26 03:31:59;;;;;;;28.42;12.05;;;26.00;87.00;;;;;;5034014;28;20034;-73
2022/08/26 03:34:25;;;;;;;26.02;12.68;;;26.00;86.70;;;;;;5032840;28;20034;-73
2022/08/26 03:36:51;;;;;;;39.55;13.43;;;26.10;87.00;;;;;;5034211;28;20412;-73
2022/08/26 03:39:17;;;;;;;34.13;15.38;;;26.00;87.10;;;;;;5034514;28;20037;-72
2022/08/26 03:41:43;;;;;;;23.08;11.82;;;26.00;87.50;;;;;;5035598;28;20044;-72
2022/08/26 03:44:09;;;;;;;36.30;12.75;;;25.90;87.60;;;;;;5033483;28;20029;-72
2022/08/26 03:46:35;;;;;;;31.48;14.20;;;25.90;87.70;;;;;;5036590;28;20040;-74
2022/08/26 03:49:04;;;;;;;29.13;10.63;;;25.90;87.70;;;;;;5034736;28;20037;-72
2022/08/26 03:51:31;;;;;;;28.08;13.60;;;25.90;87.30;;;;;;5034990;28;20213;-71
2022/08/26 03:53:58;;;;;;;31.92;13.68;;;25.90;88.80;;;;;;5035176;28;20381;-71
2022/08/26 03:56:24;;;;;;;27.73;12.85;;;25.90;88.60;;;;;;5037840;28;20114;-71
2022/08/26 03:58:49;;;;;;;32.38;14.20;;;25.80;89.00;;;;;;5033004;28;20083;-71
2022/08/26 04:01:15;;;;;;;36.42;13.15;;;25.90;89.10;;;;;;5031771;28;20017;-71
2022/08/26 04:03:59;;;;;;;27.75;13.50;;;25.80;89.50;;;;;;5032333;28;20389;-70
2022/08/26 04:06:28;;;;;;;33.90;14.60;;;25.80;89.40;;;;;;5033315;28;20021;-70
2022/08/26 04:08:57;;;;;;;30.38;11.20;;;25.80;90.10;;;;;;5032922;28;20065;-71
2022/08/26 04:11:27;;;;;;;26.65;11.27;;;25.70;89.50;;;;;;5031603;28;20396;-71
2022/08/26 04:13:53;;;;;;;30.20;12.40;;;25.70;89.20;;;;;;5033963;28;20416;-70
2022/08/26 04:16:18;;;;;;;26.85;13.73;;;25.70;89.00;;;;;;5034358;28;20033;-71
2022/08/26 04:18:44;;;;;;;30.70;11.80;;;25.70;89.60;;;;;;5034936;28;20067;-71
2022/08/26 04:21:11;;;;;;;30.58;11.52;;;25.70;89.10;;;;;;5033542;28;20029;-71
2022/08/26 04:23:37;;;;;;;23.98;11.60;;;25.70;89.20;;;;;;5033291;28;20481;-71
2022/08/26 04:26:03;;;;;;;26.00;11.18;;;25.70;89.20;;;;;;5034134;28;20063;-72
2022/08/26 04:28:29;;;;;;;27.83;12.50;;;25.70;88.10;;;;;;5047864;28;20448;-72
2022/08/26 04:30:56;;;;;;;23.42;10.82;;;25.70;88.90;;;;;;5047374;28;20508;-72
2022/08/26 04:33:22;;;;;;;85.60;14.20;;;25.60;88.70;;;;;;5045592;28;20025;-72
2022/08/26 04:35:48;;;;;;;35.03;12.40;;;25.70;88.00;;;;;;5048214;28;20531;-72
2022/08/26 04:38:15;;;;;;;24.98;10.27;;;25.60;88.40;;;;;;5049812;28;20033;-72
2022/08/26 04:40:45;;;;;;;27.98;10.35;;;25.60;88.40;;;;;;5047811;28;20025;-72
2022/08/26 04:43:11;;;;;;;32.97;12.02;;;25.60;88.30;;;;;;5047882;28;20037;-71
2022/08/26 04:45:40;;;;;;;34.65;13.43;;;25.50;88.20;;;;;;5040762;28;20124;-72
2022/08/26 04:48:07;;;;;;;31.23;11.98;;;25.60;88.80;;;;;;5042017;28;20025;-73
2022/08/26 04:50:33;;;;;;;24.17;9.52;;;25.60;88.30;;;;;;5045782;28;20471;-71
2022/08/26 04:52:59;;;;;;;24.55;11.27;;;25.50;87.90;;;;;;5036440;28;20018;-74
2022/08/26 04:55:25;;;;;;;26.83;11.40;;;25.50;88.10;;;;;;5044751;28;20491;-73
2022/08/26 04:57:52;;;;;;;36.20;13.25;;;25.50;88.60;;;;;;5042542;28;20168;-74
2022/08/26 05:00:18;;;;;;;110.80;21.52;;;25.50;89.00;;;;;;5048277;28;20029;-74
2022/08/26 05:02:44;;;;;;;35.53;11.07;;;25.50;90.00;;;;;;5044670;28;20029;-73
2022/08/26 05:05:10;;;;;;;30.25;12.48;;;25.50;89.40;;;;;;5048047;28;20036;-74
2022/08/26 05:07:36;;;;;;;29.95;10.75;;;25.50;89.70;;;;;;5033141;28;20030;-72
2022/08/26 05:10:02;;;;;;;28.48;12.10;;;25.50;89.40;;;;;;5037035;28;21411;-73
2022/08/26 05:12:28;;;;;;;50.67;11.52;;;25.50;89.20;;;;;;5039399;28;20026;-73
2022/08/26 05:14:54;;;;;;;27.90;10.02;;;25.40;88.40;;;;;;5046701;28;20033;-73
2022/08/26 05:17:20;;;;;;;31.42;11.23;;;25.50;88.10;;;;;;5043379;28;20044;-73
2022/08/26 05:19:46;;;;;;;21.90;10.05;;;25.40;87.70;;;;;;5037326;28;20033;-75
2022/08/26 05:22:12;;;;;;;23.38;11.13;;;25.40;87.20;;;;;;5030493;28;20156;-74
2022/08/26 05:24:38;;;;;;;28.88;11.10;;;25.50;87.50;;;;;;5047589;28;20033;-76
2022/08/26 05:27:04;;;;;;;30.17;12.93;;;25.40;86.70;;;;;;5040650;28;20042;-73
2022/08/26 05:29:30;;;;;;;28.40;10.38;;;25.40;87.10;;;;;;5042221;28;20029;-74
2022/08/26 05:31:55;;;;;;;18.67;9.23;;;25.40;86.70;;;;;;5041185;28;20032;-84
2022/08/26 05:34:21;;;;;;;30.13;9.68;;;25.40;86.60;;;;;;5047884;28;20381;-86
2022/08/26 05:36:47;;;;;;;26.83;10.43;;;25.40;86.90;;;;;;5048942;28;20063;-86
2022/08/26 05:39:12;;;;;;;26.65;11.25;;;25.40;87.30;;;;;;5051573;28;20476;-89
2022/08/26 05:41:40;;;;;;;19.52;8.48;;;25.30;87.50;;;;;;5040133;28;20033;-81
2022/08/26 05:44:09;;;;;;;19.77;9.50;;;25.30;87.10;;;;;;5045865;28;20037;-72
2022/08/26 05:46:37;;;;;;;17.67;9.18;;;25.40;87.50;;;;;;5039297;28;20503;-72
2022/08/26 05:49:04;;;;;;;22.63;8.60;;;25.30;87.30;;;;;;5040915;28;20041;-72
2022/08/26 05:51:30;;;;;;;27.80;9.85;;;25.30;87.60;;;;;;5038600;28;20112;-72
2022/08/26 05:53:55;;;;;;;18.50;7.90;;;25.30;87.60;;;;;;5053497;28;20528;-70
2022/08/26 05:56:26;;;;;;;21.92;8.77;;;25.20;87.40;;;;;;5036298;28;20029;-71
2022/08/26 05:58:53;;;;;;;22.15;8.50;;;25.20;87.90;;;;;;5041182;28;20029;-71
2022/08/26 06:01:24;;;;;;;21.08;8.07;;;25.20;88.20;;;;;;5042761;28;20025;-71
2022/08/26 06:03:53;;;;;;;25.60;9.52;;;25.10;88.40;;;;;;5048306;28;20457;-70
2022/08/26 06:06:22;;;;;;;23.30;8.27;;;25.20;88.50;;;;;;5040120;28;20029;-71
2022/08/26 06:08:49;;;;;;;18.05;9.57;;;25.20;88.20;;;;;;5050029;28;20412;-70
2022/08/26 06:11:17;;;;;;;22.38;8.05;;;25.10;88.40;;;;;;5046148;28;20044;-71
2022/08/26 06:13:43;;;;;;;26.17;8.60;;;25.10;88.50;;;;;;5048355;28;20025;-71
2022/08/26 06:16:12;;;;;;;24.05;8.23;;;25.10;88.90;;;;;;5040308;28;20033;-72
2022/08/26 06:18:41;;;;;;;28.42;8.70;;;25.10;88.90;;;;;;5036004;28;20029;-71
2022/08/26 06:21:17;;;;;;;15.35;7.38;;;25.10;88.90;;;;;;5034496;28;20095;-71
2022/08/26 06:26:29;;;;;;;15.90;7.32;;;25.00;88.20;;;;;;5035573;28;20029;-71
2022/08/26 06:28:55;;;;;;;20.45;7.85;;;25.00;88.40;;;;;;5043971;28;20024;-72
2022/08/26 06:31:22;;;;;;;16.65;7.47;;;25.00;88.60;;;;;;5051082;28;20392;-72
2022/08/26 06:33:49;;;;;;;22.35;7.70;;;24.90;88.70;;;;;;5047914;28;20059;-72
2022/08/26 06:36:18;;;;;;;28.52;8.25;;;24.90;89.00;;;;;;5049498;28;20082;-72
2022/08/26 06:38:45;;;;;;;26.23;9.43;;;25.00;89.20;;;;;;5047005;28;20029;-71
2022/08/26 06:41:11;;;;;;;20.50;9.00;;;25.00;89.50;;;;;;5045514;28;20037;-71
2022/08/26 06:43:37;;;;;;;33.53;11.75;;;24.90;89.70;;;;;;5046785;28;20025;-71
2022/08/26 06:46:06;;;;;;;24.23;9.98;;;24.90;90.30;;;;;;5046289;28;20112;-73
2022/08/26 06:48:32;;;;;;;33.80;10.90;;;24.90;90.20;;;;;;5047662;28;20383;-73
2022/08/26 06:51:19;;;;;;;30.00;8.68;;;24.90;90.70;;;;;;5049641;28;20060;-72
2022/08/26 06:53:46;;;;;;;23.00;6.75;;;24.90;90.10;;;;;;5049129;28;20037;-72
2022/08/26 06:56:14;;;;;;;241.65;18.48;;;24.90;89.50;;;;;;5047932;28;20025;-73
2022/08/26 06:58:40;;;;;;;58.40;9.40;;;24.90;89.20;;;;;;5046702;28;20422;-72
2022/08/26 07:01:18;;;;;;;43.65;8.40;;;24.90;89.20;;;;;;5046237;28;20029;-74
2022/08/26 07:03:44;;;;;;;28.95;8.35;;;24.90;89.00;;;;;;5050020;28;20036;-72
2022/08/26 07:06:10;;;;;;;15.75;6.35;;;24.90;89.30;;;;;;5048400;28;20033;-74
2022/08/26 07:08:35;;;;;;;16.23;7.03;;;24.90;89.00;;;;;;5032381;28;20171;-74
2022/08/26 07:11:08;;;;;;;17.40;6.65;;;24.90;89.10;;;;;;5042757;28;20042;-75
2022/08/26 07:13:36;;;;;;;;;;;24.90;89.20;;;;;;5032536;28;20025;-74
2022/08/26 07:16:06;;;;;;;16.55;6.63;;;24.90;88.50;;;;;;5040771;28;19919;-74
2022/08/26 07:18:34;;;;;;;11.75;6.07;;;24.90;89.10;;;;;;5039775;28;20033;-74
2022/08/26 07:21:04;;;;;;;25.52;8.18;;;24.90;89.30;;;;;;5039661;28;20032;-73
2022/08/26 07:23:30;;;;;;;19.98;6.35;;;24.90;90.00;;;;;;5046833;28;20119;-73
2022/08/26 07:25:56;;;;;;;17.60;6.22;;;24.80;89.80;;;;;;5042328;28;20105;-72
2022/08/26 07:28:22;;;;;;;22.20;6.30;;;24.90;89.60;;;;;;5047459;28;20444;-71
2022/08/26 07:30:48;;;;;;;17.65;6.55;;;24.90;89.60;;;;;;5039562;28;20041;-74
2022/08/26 07:33:16;;;;;;;20.65;5.88;;;24.90;89.30;;;;;;5033062;28;20026;-73
2022/08/26 07:35:43;;;;;;;19.30;6.80;;;24.90;89.40;;;;;;5041438;28;20079;-73
2022/08/26 07:38:09;;;;;;;18.05;6.60;;;24.90;89.60;;;;;;5039163;28;20030;-73
2022/08/26 07:40:35;;;;;;;14.65;5.57;;;24.90;89.90;;;;;;5034275;28;20033;-73
2022/08/26 07:43:02;;;;;;;12.63;4.45;;;24.90;90.00;;;;;;5037757;28;20385;-73
2022/08/26 07:45:28;;;;;;;14.48;6.00;;;24.90;88.80;;;;;;5040584;28;20038;-74
2022/08/26 07:47:53;;;;;;;13.65;5.00;;;24.90;88.80;;;;;;5040900;28;20530;-74
2022/08/26 07:50:21;;;;;;;19.90;6.70;;;24.90;88.60;;;;;;5033724;28;20088;-74
2022/08/26 07:52:47;;;;;;;16.08;5.95;;;24.90;89.10;;;;;;5046223;28;20079;-74
2022/08/26 07:55:13;;;;;;;20.67;6.65;;;24.90;89.20;;;;;;5038146;28;20037;-73
2022/08/26 07:57:38;;;;;;;10.77;5.50;;;24.90;89.30;;;;;;5031701;28;20076;-73
2022/08/26 08:00:07;;;;;;;14.18;5.82;;;24.90;89.00;;;;;;5039450;28;20041;-73
2022/08/26 08:02:37;;;;;;;;;;;24.90;89.10;;;;;;5048789;28;20082;-74
2022/08/26 08:05:04;;;;;;;15.63;5.80;;;24.90;88.30;;;;;;5050420;28;19999;-74
2022/08/26 08:07:29;;;;;;;13.82;5.38;;;24.90;89.00;;;;;;5039895;28;20486;-74
2022/08/26 08:09:55;;;;;;;13.30;5.07;;;24.90;89.30;;;;;;5040341;28;20048;-73
2022/08/26 08:12:21;;;;;;;13.35;5.20;;;24.90;88.90;;;;;;5029118;28;20029;-72
2022/08/26 08:14:47;;;;;;;16.63;5.75;;;24.90;89.00;;;;;;5033570;28;20508;-72
2022/08/26 08:17:13;;;;;;;15.65;5.20;;;24.90;89.20;;;;;;5034427;28;20107;-72
2022/08/26 08:19:40;;;;;;;14.98;4.80;;;24.90;89.50;;;;;;5031716;28;20030;-72
2022/08/26 08:22:06;;;;;;;22.60;5.50;;;24.90;89.60;;;;;;5033537;28;20427;-74
2022/08/26 08:24:33;;;;;;;15.00;5.30;;;24.90;89.60;;;;;;5038458;28;20041;-73
2022/08/26 08:27:00;;;;;;;14.10;5.10;;;24.90;89.40;;;;;;5045098;28;20039;-73
2022/08/26 08:29:30;;;;;;;12.48;4.47;;;24.90;89.40;;;;;;5047418;28;20024;-73
2022/08/26 08:31:56;;;;;;;14.43;4.75;;;24.90;89.20;;;;;;5044775;28;20061;-74
2022/08/26 08:34:27;;;;;;;13.52;4.22;;;24.90;89.00;;;;;;5035339;28;20373;-74
2022/08/26 08:36:53;;;;;;;10.80;4.50;;;25.00;89.20;;;;;;5032844;28;20041;-74
2022/08/26 08:39:18;;;;;;;15.55;4.68;;;25.00;89.30;;;;;;5031581;28;20037;-73
2022/08/26 08:41:47;;;;;;;11.85;3.90;;;25.00;89.10;;;;;;5031067;28;20033;-73
2022/08/26 08:44:19;;;;;;;6.32;3.42;;;25.00;89.20;;;;;;5032037;28;20116;-73
2022/08/26 08:46:49;;;;;;;22.80;4.35;;;25.00;89.30;;;;;;5036480;28;20030;-73
2022/08/26 08:49:15;;;;;;;12.30;4.13;;;25.00;89.10;;;;;;5031900;28;20029;-73
2022/08/26 08:51:41;;;;;;;16.35;4.47;;;25.00;89.10;;;;;;5041376;28;20116;-74
2022/08/26 08:54:07;;;;;;;12.07;4.35;;;25.10;89.30;;;;;;5040411;28;20037;-74
2022/08/26 08:56:37;;;;;;;14.60;4.22;;;25.10;89.30;;;;;;5033241;28;20033;-74
2022/08/26 08:59:19;;;;;;;11.13;3.72;;;25.10;89.30;;;;;;5037527;28;20151;-75
2022/08/26 09:02:09;;;;;;;12.90;3.90;;;25.10;89.10;;;;;;5020075;28;20026;-70
2022/08/26 09:04:54;;;;;;;16.42;3.95;;;25.10;88.80;;;;;;5031227;28;20061;-72
2022/08/26 09:07:40;;;;;;;15.50;2.88;;;25.10;89.10;;;;;;5042933;28;20092;-73
2022/08/26 09:10:27;;;;;;;8.32;2.38;;;25.10;87.90;;;;;;5054039;28;20049;-72
2022/08/26 09:12:53;;;;;;;9.63;2.83;;;25.00;88.20;;;;;;5046707;28;20029;-72
2022/08/26 09:15:45;;;;;;;13.15;2.75;;;25.10;88.50;;;;;;5035021;28;20080;-73
2022/08/26 09:18:27;;;;;;;8.48;2.15;;;25.10;88.40;;;;;;5035613;28;20516;-73
2022/08/26 09:20:58;;;;;;;11.45;3.22;;;25.10;88.00;;;;;;5035042;28;20033;-73
2022/08/26 09:23:25;;;;;;;14.10;3.50;;;25.10;88.30;;;;;;5033091;28;20116;-73
2022/08/26 09:25:54;;;;;;;13.88;3.55;;;25.10;88.80;;;;;;5035508;28;20151;-73
2022/08/26 09:28:23;;;;;;;19.73;4.22;;;25.10;88.30;;;;;;5032319;28;20029;-72
2022/08/26 09:31:23;;;;;;;14.32;4.10;;;25.10;88.00;;;;;;5039823;28;20401;-74
2022/08/26 09:34:21;;;;;;;6.88;2.58;;;25.10;88.00;;;;;;5033037;28;20072;-74
2022/08/26 09:36:53;;;;;;;6.65;2.38;;;25.10;88.90;;;;;;5037003;28;20042;-74
2022/08/26 09:39:29;;;;;;;6.55;2.00;;;25.10;88.70;;;;;;5044884;28;20427;-73
2022/08/26 09:42:02;;;;;;;13.00;3.15;;;25.10;88.80;;;;;;5041840;28;20071;-73
2022/08/26 09:44:29;;;;;;;13.82;2.10;;;25.10;89.00;;;;;;5046269;28;20029;-74
2022/08/26 09:46:58;;;;;;;14.07;2.95;;;25.10;89.00;;;;;;5035389;28;20037;-75
2022/08/26 09:49:35;;;;;;;5.93;2.03;;;25.10;89.10;;;;;;5046768;28;20431;-75
2022/08/26 09:52:04;;;;;;;15.45;2.33;;;25.10;89.10;;;;;;5043278;28;20036;-73
2022/08/26 09:54:29;;;;;;;17.30;2.63;;;25.00;89.20;;;;;;5044971;28;20079;-72
2022/08/26 09:57:12;;;;;;;7.40;2.20;;;25.00;89.30;;;;;;5036710;28;20045;-73
2022/08/26 09:59:37;;;;;;;12.73;2.90;;;25.00;89.10;;;;;;5036108;28;20079;-74
2022/08/26 10:02:33;;;;;;;11.73;2.65;;;25.00;89.20;;;;;;5033811;28;20021;-73
2022/08/26 10:05:03;;;;;;;10.38;2.42;;;25.00;89.30;;;;;;5021545;28;20061;-74
2022/08/26 10:07:48;;;;;;;12.68;2.25;;;25.00;89.40;;;;;;5034387;28;20436;-74
2022/08/26 10:10:33;;;;;;;12.55;2.42;;;25.00;89.50;;;;;;5029262;28;20081;-74
2022/08/26 10:13:14;;;;;;;8.10;2.60;;;25.00;89.60;;;;;;5034132;28;20030;-74
2022/08/26 10:16:06;;;;;;;6.63;1.67;;;25.00;89.50;;;;;;5034187;28;20040;-73
2022/08/26 10:18:38;;;;;;;9.32;2.42;;;25.00;89.60;;;;;;5030460;28;20045;-72
2022/08/26 10:21:33;;;;;;;10.10;2.35;;;25.00;89.50;;;;;;5041460;28;20065;-71
2022/08/26 10:24:02;;;;;;;16.65;2.70;;;25.00;89.40;;;;;;5022535;28;20057;-72
2022/08/26 10:26:59;;;;;;;13.98;2.97;;;25.00;89.40;;;;;;5040864;28;20032;-73
2022/08/26 10:29:38;;;;;;;11.13;2.70;;;25.10;89.80;;;;;;5036889;28;20045;-72
2022/08/26 10:32:11;;;;;;;15.73;3.67;;;25.10;89.80;;;;;;5037531;28;20034;-73
2022/08/26 10:34:37;;;;;;;13.00;3.15;;;25.10;90.00;;;;;;5028877;28;20030;-74
2022/08/26 10:37:09;;;;;;;9.70;2.95;;;25.10;89.80;;;;;;5044562;28;20041;-72
2022/08/26 10:39:46;;;;;;;11.57;2.97;;;25.10;89.70;;;;;;5040128;28;20782;-75
2022/08/26 10:42:34;;;;;;;10.57;3.08;;;25.20;89.50;;;;;;5033464;28;20037;-74
2022/08/26 10:45:08;;;;;;;11.43;2.92;;;25.20;89.40;;;;;;5034751;28;20025;-75
2022/08/26 10:47:47;;;;;;;14.05;2.80;;;25.30;89.60;;;;;;5035381;28;20049;-72
2022/08/26 10:50:12;;;;;;;10.57;3.10;;;25.20;89.40;;;;;;5039214;28;20040;-75
2022/08/26 10:53:00;;;;;;;7.88;2.53;;;25.20;88.90;;;;;;5036828;28;20384;-74
2022/08/26 10:55:55;;;;;;;13.43;3.20;;;25.20;88.70;;;;;;5033947;28;20026;-75
2022/08/26 10:58:51;;;;;;;10.75;2.78;;;25.20;88.60;;;;;;5027621;28;20044;-72
2022/08/26 11:04:37;;;;;;;10.20;3.67;;;25.20;88.50;;;;;;5026889;28;20040;-74
2022/08/26 11:07:36;;;;;;;11.20;2.47;;;25.20;88.40;;;;;;5042934;28;20167;-74
2022/08/26 11:10:16;;;;;;;40.42;3.13;;;25.20;88.10;;;;;;5041276;28;20053;-74
2022/08/26 11:12:44;;;;;;;11.70;2.75;;;25.20;88.20;;;;;;5039969;28;20033;-74
2022/08/26 11:15:10;;;;;;;10.57;1.95;;;25.20;88.10;;;;;;5036753;28;20476;-74
2022/08/26 11:17:45;;;;;;;15.80;2.40;;;25.20;88.00;;;;;;5040594;28;20515;-74
2022/08/26 11:20:37;;;;;;;10.45;2.80;;;25.20;88.10;;;;;;5044072;28;20068;-74
2022/08/26 11:23:25;;;;;;;9.23;2.38;;;25.20;87.80;;;;;;5039456;28;20032;-74
2022/08/26 11:25:59;;;;;;;27.95;3.08;;;25.20;87.70;;;;;;5025612;28;20105;-74
2022/08/26 11:28:37;;;;;;;10.07;2.33;;;25.20;87.70;;;;;;5032542;28;20052;-74
2022/08/26 11:31:07;;;;;;;11.70;2.55;;;25.20;87.60;;;;;;5040660;28;20064;-74
2022/08/26 11:33:56;;;;;;;11.70;2.53;;;25.30;87.80;;;;;;5042489;28;20547;-74
2022/08/26 11:36:50;;;;;;;11.00;2.20;;;25.30;87.90;;;;;;5045008;28;20037;-74
2022/08/26 11:39:29;;;;;;;7.22;2.10;;;25.30;88.00;;;;;;5032580;28;20420;-74
2022/08/26 11:42:03;;;;;;;9.50;2.20;;;25.30;88.90;;;;;;5038813;28;20025;-74
2022/08/26 11:44:41;;;;;;;11.95;2.63;;;25.30;88.50;;;;;;5032811;28;20488;-74
2022/08/26 11:47:09;;;;;;;10.95;2.38;;;25.30;88.40;;;;;;5034543;28;20095;-74
2022/08/26 11:49:36;;;;;;;9.82;2.15;;;25.30;88.40;;;;;;5036376;28;20485;-74
2022/08/26 11:52:11;;;;;;;14.18;2.80;;;25.40;88.50;;;;;;5034944;28;20040;-74
2022/08/26 11:54:36;;;;;;;7.15;1.83;;;25.40;88.60;;;;;;5043462;28;20369;-74
2022/08/26 11:57:06;;;;;;;7.05;2.15;;;25.40;88.60;;;;;;5043496;28;20031;-74
2022/08/26 11:59:37;;;;;;;5.20;1.95;;;25.40;88.40;;;;;;5043832;28;20526;-74
2022/08/26 12:02:09;;;;;;;9.48;2.20;;;25.40;88.40;;;;;;5039805;28;20040;-74
2022/08/26 12:04:39;;;;;;;9.70;2.33;;;25.40;88.60;;;;;;5031348;28;20033;-73
2022/08/26 12:07:07;;;;;;;10.38;2.20;;;25.40;88.60;;;;;;5025949;28;20370;-74
2022/08/26 12:09:35;;;;;;;10.20;1.92;;;25.40;88.60;;;;;;5037544;28;20055;-74
2022/08/26 12:12:23;;;;;;;10.75;2.40;;;25.40;89.00;;;;;;5036301;28;20116;-74
2022/08/26 12:15:16;;;;;;;17.17;2.45;;;25.40;88.20;;;;;;5038841;28;20464;-75
2022/08/26 12:17:43;;;;;;;;;;;25.40;88.20;;;;;;5041098;28;20029;-73
2022/08/26 12:20:30;;;;;;;7.55;2.33;;;25.40;88.00;;;;;;5044060;28;19909;-73
2022/08/26 12:22:58;;;;;;;7.15;2.00;;;25.40;88.60;;;;;;5030321;28;20083;-75
2022/08/26 12:25:24;;;;;;;20.33;2.60;;;25.40;88.80;;;;;;5034374;28;20025;-75
2022/08/26 12:27:50;;;;;;;13.68;3.08;;;25.40;89.90;;;;;;5037813;28;20049;-75
2022/08/26 12:30:19;;;;;;;10.63;2.67;;;25.30;89.80;;;;;;5030951;28;20048;-75
2022/08/26 12:32:47;;;;;;;8.35;2.10;;;25.30;89.90;;;;;;5037432;28;20056;-75
2022/08/26 12:35:16;;;;;;;11.20;2.50;;;25.30;89.60;;;;;;5029230;28;20033;-75
2022/08/26 12:37:51;;;;;;;13.35;2.92;;;25.30;90.00;;;;;;5041103;28;20064;-75
2022/08/26 12:40:44;;;;;;;23.38;3.55;;;25.30;90.10;;;;;;5037157;28;20485;-75
2022/08/26 12:43:15;;;;;;;13.45;3.03;;;25.30;90.20;;;;;;5037661;28;20127;-75
2022/08/26 12:45:54;;;;;;;12.63;2.20;;;25.30;90.40;;;;;;5036465;28;20460;-75
2022/08/26 12:48:31;;;;;;;8.30;2.13;;;25.30;90.50;;;;;;5035619;28;20025;-75
2022/08/26 12:50:57;;;;;;;7.75;1.88;;;25.20;90.70;;;;;;5028200;28;20427;-75
2022/08/26 12:53:26;;;;;;;6.95;1.83;;;25.20;90.60;;;;;;5040983;28;20112;-75
2022/08/26 12:55:55;;;;;;;9.77;2.00;;;25.20;90.60;;;;;;5035177;28;20488;-76
2022/08/26 12:58:25;;;;;;;5.90;1.40;;;25.20;90.60;;;;;;5042590;28;20060;-76
2022/08/26 13:00:56;;;;;;;6.28;1.88;;;25.20;90.60;;;;;;5035019;28;20036;-76